sensor_id;sensor_type;location;lat;lon;timestamp;P1;durP1;ratioP1;P2;durP2;ratioP2
38859;SDS011;24609;48.316;16.174;2023-06-22T00:01:18;11.98;;;4.72;;
38859;SDS011;24609;48.316;16.174;2023-06-22T00:03:45;6.70;;;4.10;;
38859;SDS011;24609;48.316;16.174;2023-06-22T00:06:10;11.90;;;4.25;;
38859;SDS011;24609;48.316;16.174;2023-06-22T00:08:36;12.70;;;4.80;;
38859;SDS011;24609;48.316;16.174;2023-06-22T00:11:02;7.07;;;3.88;;
38859;SDS011;24609;48.316;16.174;2023-06-22T00:13:27;13.55;;;5.35;;
38859;SDS011;24609;48.316;16.174;2023-06-22T00:15:53;9.73;;;4.55;;
38859;SDS011;24609;48.316;16.174;2023-06-22T00:18:18;10.32;;;4.22;;
38859;SDS011;24609;48.316;16.174;2023-06-22T00:20:45;12.57;;;4.75;;
38859;SDS011;24609;48.316;16.174;2023-06-22T00:23:11;7.60;;;3.90;;
38859;SDS011;24609;48.316;16.174;2023-06-22T00:25:40;15.43;;;4.60;;
38859;SDS011;24609;48.316;16.174;2023-06-22T00:28:06;9.30;;;5.18;;
38859;SDS011;24609;48.316;16.174;2023-06-22T00:30:33;14.13;;;4.57;;
38859;SDS011;24609;48.316;16.174;2023-06-22T00:32:59;9.90;;;4.13;;
38859;SDS011;24609;48.316;16.174;2023-06-22T00:35:26;10.27;;;4.60;;
38859;SDS011;24609;48.316;16.174;2023-06-22T00:37:54;13.68;;;4.70;;
38859;SDS011;24609;48.316;16.174;2023-06-22T00:40:26;9.15;;;4.32;;
38859;SDS011;24609;48.316;16.174;2023-06-22T00:42:52;13.15;;;4.97;;
38859;SDS011;24609;48.316;16.174;2023-06-22T00:45:18;8.55;;;4.50;;
38859;SDS011;24609;48.316;16.174;2023-06-22T00:47:44;9.57;;;4.75;;
38859;SDS011;24609;48.316;16.174;2023-06-22T00:50:10;12.05;;;4.68;;
38859;SDS011;24609;48.316;16.174;2023-06-22T00:52:43;9.45;;;4.60;;
38859;SDS011;24609;48.316;16.174;2023-06-22T00:55:11;9.30;;;4.65;;
38859;SDS011;24609;48.316;16.174;2023-06-22T00:57:37;11.60;;;4.78;;
38859;SDS011;24609;48.316;16.174;2023-06-22T01:00:03;12.68;;;4.70;;
38859;SDS011;24609;48.316;16.174;2023-06-22T01:02:33;12.23;;;5.25;;
38859;SDS011;24609;48.316;16.174;2023-06-22T01:04:59;10.15;;;4.03;;
38859;SDS011;24609;48.316;16.174;2023-06-22T01:10:03;16.88;;;4.97;;
38859;SDS011;24609;48.316;16.174;2023-06-22T01:12:40;9.70;;;5.05;;
38859;SDS011;24609;48.316;16.174;2023-06-22T01:15:21;8.45;;;4.85;;
38859;SDS011;24609;48.316;16.174;2023-06-22T01:17:52;11.45;;;5.22;;
38859;SDS011;24609;48.316;16.174;2023-06-22T01:20:18;10.18;;;5.00;;
38859;SDS011;24609;48.316;16.174;2023-06-22T01:22:56;11.55;;;4.80;;
38859;SDS011;24609;48.316;16.174;2023-06-22T01:25:45;11.93;;;5.03;;
38859;SDS011;24609;48.316;16.174;2023-06-22T01:28:24;9.05;;;5.60;;
38859;SDS011;24609;48.316;16.174;2023-06-22T01:31:10;10.80;;;5.50;;
38859;SDS011;24609;48.316;16.174;2023-06-22T01:33:39;13.73;;;5.57;;
38859;SDS011;24609;48.316;16.174;2023-06-22T01:36:07;10.68;;;5.45;;
38859;SDS011;24609;48.316;16.174;2023-06-22T01:38:34;11.25;;;4.85;;
38859;SDS011;24609;48.316;16.174;2023-06-22T01:41:01;7.40;;;4.57;;
38859;SDS011;24609;48.316;16.174;2023-06-22T01:43:28;11.68;;;5.50;;
38859;SDS011;24609;48.316;16.174;2023-06-22T01:45:55;8.68;;;4.18;;
38859;SDS011;24609;48.316;16.174;2023-06-22T01:48:22;8.13;;;4.75;;
38859;SDS011;24609;48.316;16.174;2023-06-22T01:50:48;11.70;;;4.53;;
38859;SDS011;24609;48.316;16.174;2023-06-22T01:53:14;7.60;;;4.32;;
38859;SDS011;24609;48.316;16.174;2023-06-22T01:55:40;15.73;;;4.45;;
38859;SDS011;24609;48.316;16.174;2023-06-22T01:58:06;8.90;;;4.57;;
38859;SDS011;24609;48.316;16.174;2023-06-22T02:00:32;10.23;;;4.45;;
38859;SDS011;24609;48.316;16.174;2023-06-22T02:05:36;11.38;;;4.85;;
38859;SDS011;24609;48.316;16.174;2023-06-22T02:08:12;9.18;;;4.25;;
38859;SDS011;24609;48.316;16.174;2023-06-22T02:10:43;10.43;;;4.30;;
38859;SDS011;24609;48.316;16.174;2023-06-22T02:13:10;11.43;;;4.53;;
38859;SDS011;24609;48.316;16.174;2023-06-22T02:15:38;8.40;;;4.28;;
38859;SDS011;24609;48.316;16.174;2023-06-22T02:18:04;9.50;;;3.95;;
38859;SDS011;24609;48.316;16.174;2023-06-22T02:20:30;11.95;;;5.00;;
38859;SDS011;24609;48.316;16.174;2023-06-22T02:22:56;11.85;;;4.63;;
38859;SDS011;24609;48.316;16.174;2023-06-22T02:25:21;8.90;;;4.28;;
38859;SDS011;24609;48.316;16.174;2023-06-22T02:27:47;8.88;;;3.88;;
38859;SDS011;24609;48.316;16.174;2023-06-22T02:30:13;12.68;;;4.75;;
38859;SDS011;24609;48.316;16.174;2023-06-22T02:32:40;9.15;;;4.05;;
38859;SDS011;24609;48.316;16.174;2023-06-22T02:35:07;9.85;;;5.03;;
38859;SDS011;24609;48.316;16.174;2023-06-22T02:37:36;6.82;;;4.80;;
38859;SDS011;24609;48.316;16.174;2023-06-22T02:40:07;7.40;;;4.18;;
38859;SDS011;24609;48.316;16.174;2023-06-22T02:42:36;10.77;;;4.88;;
38859;SDS011;24609;48.316;16.174;2023-06-22T02:45:03;11.35;;;4.57;;
38859;SDS011;24609;48.316;16.174;2023-06-22T02:47:29;9.05;;;4.10;;
38859;SDS011;24609;48.316;16.174;2023-06-22T02:49:54;9.98;;;4.05;;
38859;SDS011;24609;48.316;16.174;2023-06-22T02:52:20;10.00;;;4.85;;
38859;SDS011;24609;48.316;16.174;2023-06-22T02:54:46;11.30;;;4.68;;
38859;SDS011;24609;48.316;16.174;2023-06-22T02:57:11;9.25;;;4.18;;
38859;SDS011;24609;48.316;16.174;2023-06-22T02:59:41;9.65;;;4.88;;
38859;SDS011;24609;48.316;16.174;2023-06-22T03:02:08;9.90;;;4.22;;
38859;SDS011;24609;48.316;16.174;2023-06-22T03:04:34;9.60;;;4.43;;
38859;SDS011;24609;48.316;16.174;2023-06-22T03:07:00;13.05;;;5.25;;
38859;SDS011;24609;48.316;16.174;2023-06-22T03:09:27;15.48;;;4.97;;
38859;SDS011;24609;48.316;16.174;2023-06-22T03:11:53;11.57;;;5.03;;
38859;SDS011;24609;48.316;16.174;2023-06-22T03:14:19;11.43;;;5.10;;
38859;SDS011;24609;48.316;16.174;2023-06-22T03:16:45;12.73;;;5.30;;
38859;SDS011;24609;48.316;16.174;2023-06-22T03:19:11;11.00;;;5.93;;
38859;SDS011;24609;48.316;16.174;2023-06-22T03:21:37;13.65;;;5.30;;
38859;SDS011;24609;48.316;16.174;2023-06-22T03:24:04;8.77;;;4.95;;
38859;SDS011;24609;48.316;16.174;2023-06-22T03:26:30;10.27;;;4.80;;
38859;SDS011;24609;48.316;16.174;2023-06-22T03:28:56;11.80;;;5.05;;
38859;SDS011;24609;48.316;16.174;2023-06-22T03:31:22;7.00;;;4.47;;
38859;SDS011;24609;48.316;16.174;2023-06-22T03:33:48;9.65;;;5.03;;
38859;SDS011;24609;48.316;16.174;2023-06-22T03:36:15;12.10;;;5.38;;
38859;SDS011;24609;48.316;16.174;2023-06-22T03:41:13;8.93;;;4.50;;
38859;SDS011;24609;48.316;16.174;2023-06-22T03:43:39;11.10;;;4.85;;
38859;SDS011;24609;48.316;16.174;2023-06-22T03:46:05;10.90;;;4.88;;
38859;SDS011;24609;48.316;16.174;2023-06-22T03:48:30;8.90;;;4.13;;
38859;SDS011;24609;48.316;16.174;2023-06-22T03:50:56;8.73;;;4.47;;
38859;SDS011;24609;48.316;16.174;2023-06-22T03:53:24;11.20;;;4.40;;
38859;SDS011;24609;48.316;16.174;2023-06-22T03:55:53;10.15;;;4.90;;
38859;SDS011;24609;48.316;16.174;2023-06-22T03:58:18;9.60;;;4.70;;
38859;SDS011;24609;48.316;16.174;2023-06-22T04:00:47;9.43;;;5.18;;
38859;SDS011;24609;48.316;16.174;2023-06-22T04:03:14;11.77;;;6.18;;
38859;SDS011;24609;48.316;16.174;2023-06-22T04:05:40;7.78;;;4.95;;
38859;SDS011;24609;48.316;16.174;2023-06-22T04:08:06;7.15;;;3.70;;
38859;SDS011;24609;48.316;16.174;2023-06-22T04:10:32;9.52;;;5.10;;
38859;SDS011;24609;48.316;16.174;2023-06-22T04:12:58;8.80;;;4.82;;
38859;SDS011;24609;48.316;16.174;2023-06-22T04:15:25;9.43;;;4.90;;
38859;SDS011;24609;48.316;16.174;2023-06-22T04:17:50;9.95;;;4.43;;
38859;SDS011;24609;48.316;16.174;2023-06-22T04:20:16;10.50;;;5.10;;
38859;SDS011;24609;48.316;16.174;2023-06-22T04:22:41;7.15;;;4.47;;
38859;SDS011;24609;48.316;16.174;2023-06-22T04:25:07;8.90;;;5.30;;
38859;SDS011;24609;48.316;16.174;2023-06-22T04:27:33;9.35;;;4.82;;
38859;SDS011;24609;48.316;16.174;2023-06-22T04:30:05;8.48;;;4.47;;
38859;SDS011;24609;48.316;16.174;2023-06-22T04:32:32;10.48;;;5.50;;
38859;SDS011;24609;48.316;16.174;2023-06-22T04:35:04;9.00;;;4.88;;
38859;SDS011;24609;48.316;16.174;2023-06-22T04:37:31;11.30;;;5.57;;
38859;SDS011;24609;48.316;16.174;2023-06-22T04:39:58;13.45;;;5.28;;
38859;SDS011;24609;48.316;16.174;2023-06-22T04:42:26;10.98;;;5.45;;
38859;SDS011;24609;48.316;16.174;2023-06-22T04:44:52;10.98;;;5.05;;
38859;SDS011;24609;48.316;16.174;2023-06-22T04:47:18;13.35;;;5.82;;
38859;SDS011;24609;48.316;16.174;2023-06-22T04:49:44;9.93;;;4.97;;
38859;SDS011;24609;48.316;16.174;2023-06-22T04:52:11;10.48;;;5.47;;
38859;SDS011;24609;48.316;16.174;2023-06-22T04:54:38;13.32;;;6.47;;
38859;SDS011;24609;48.316;16.174;2023-06-22T04:57:06;9.90;;;5.10;;
38859;SDS011;24609;48.316;16.174;2023-06-22T04:59:35;10.55;;;5.85;;
38859;SDS011;24609;48.316;16.174;2023-06-22T05:02:04;9.25;;;4.80;;
38859;SDS011;24609;48.316;16.174;2023-06-22T05:04:31;12.40;;;5.43;;
38859;SDS011;24609;48.316;16.174;2023-06-22T05:06:57;9.75;;;5.72;;
38859;SDS011;24609;48.316;16.174;2023-06-22T05:09:25;13.88;;;5.70;;
38859;SDS011;24609;48.316;16.174;2023-06-22T05:11:51;9.55;;;5.25;;
38859;SDS011;24609;48.316;16.174;2023-06-22T05:14:17;9.32;;;5.43;;
38859;SDS011;24609;48.316;16.174;2023-06-22T05:16:43;7.82;;;4.55;;
38859;SDS011;24609;48.316;16.174;2023-06-22T05:19:09;10.73;;;5.55;;
38859;SDS011;24609;48.316;16.174;2023-06-22T05:21:35;9.93;;;5.70;;
38859;SDS011;24609;48.316;16.174;2023-06-22T05:24:01;11.70;;;5.35;;
38859;SDS011;24609;48.316;16.174;2023-06-22T05:26:27;8.82;;;4.07;;
38859;SDS011;24609;48.316;16.174;2023-06-22T05:28:57;10.48;;;4.75;;
38859;SDS011;24609;48.316;16.174;2023-06-22T05:31:24;10.02;;;4.82;;
38859;SDS011;24609;48.316;16.174;2023-06-22T05:33:51;12.73;;;4.97;;
38859;SDS011;24609;48.316;16.174;2023-06-22T05:36:18;9.75;;;5.28;;
38859;SDS011;24609;48.316;16.174;2023-06-22T05:38:51;12.13;;;4.68;;
38859;SDS011;24609;48.316;16.174;2023-06-22T05:41:17;11.20;;;5.65;;
38859;SDS011;24609;48.316;16.174;2023-06-22T05:43:43;12.55;;;7.07;;
38859;SDS011;24609;48.316;16.174;2023-06-22T05:46:08;11.38;;;6.18;;
38859;SDS011;24609;48.316;16.174;2023-06-22T05:48:34;11.65;;;6.10;;
38859;SDS011;24609;48.316;16.174;2023-06-22T05:51:00;10.52;;;5.20;;
38859;SDS011;24609;48.316;16.174;2023-06-22T05:53:25;14.38;;;5.47;;
38859;SDS011;24609;48.316;16.174;2023-06-22T05:55:51;12.25;;;5.60;;
38859;SDS011;24609;48.316;16.174;2023-06-22T05:58:17;11.73;;;6.05;;
38859;SDS011;24609;48.316;16.174;2023-06-22T06:00:43;12.45;;;5.38;;
38859;SDS011;24609;48.316;16.174;2023-06-22T06:03:09;11.90;;;5.57;;
38859;SDS011;24609;48.316;16.174;2023-06-22T06:05:41;10.98;;;4.75;;
38859;SDS011;24609;48.316;16.174;2023-06-22T06:08:08;9.05;;;5.25;;
38859;SDS011;24609;48.316;16.174;2023-06-22T06:10:35;12.30;;;5.50;;
38859;SDS011;24609;48.316;16.174;2023-06-22T06:13:01;8.10;;;4.70;;
38859;SDS011;24609;48.316;16.174;2023-06-22T06:15:29;10.23;;;4.60;;
38859;SDS011;24609;48.316;16.174;2023-06-22T06:17:55;13.55;;;4.68;;
38859;SDS011;24609;48.316;16.174;2023-06-22T06:20:22;9.85;;;4.30;;
38859;SDS011;24609;48.316;16.174;2023-06-22T06:22:49;9.65;;;4.90;;
38859;SDS011;24609;48.316;16.174;2023-06-22T06:25:15;9.32;;;4.53;;
38859;SDS011;24609;48.316;16.174;2023-06-22T06:27:42;13.07;;;5.07;;
38859;SDS011;24609;48.316;16.174;2023-06-22T06:30:09;11.32;;;4.38;;
38859;SDS011;24609;48.316;16.174;2023-06-22T06:32:35;9.77;;;4.60;;
38859;SDS011;24609;48.316;16.174;2023-06-22T06:35:01;8.85;;;4.32;;
38859;SDS011;24609;48.316;16.174;2023-06-22T06:37:27;11.75;;;4.55;;
38859;SDS011;24609;48.316;16.174;2023-06-22T06:39:53;11.35;;;4.88;;
38859;SDS011;24609;48.316;16.174;2023-06-22T06:42:19;7.03;;;4.38;;
38859;SDS011;24609;48.316;16.174;2023-06-22T06:44:45;11.07;;;4.78;;
38859;SDS011;24609;48.316;16.174;2023-06-22T06:47:10;12.18;;;5.15;;
38859;SDS011;24609;48.316;16.174;2023-06-22T06:49:36;12.70;;;4.93;;
38859;SDS011;24609;48.316;16.174;2023-06-22T06:52:02;13.55;;;4.85;;
38859;SDS011;24609;48.316;16.174;2023-06-22T06:54:28;7.63;;;3.85;;
38859;SDS011;24609;48.316;16.174;2023-06-22T06:56:53;10.32;;;3.78;;
38859;SDS011;24609;48.316;16.174;2023-06-22T06:59:19;8.68;;;4.22;;
38859;SDS011;24609;48.316;16.174;2023-06-22T07:01:45;8.98;;;3.75;;
38859;SDS011;24609;48.316;16.174;2023-06-22T07:04:13;14.00;;;3.90;;
38859;SDS011;24609;48.316;16.174;2023-06-22T07:06:39;8.02;;;4.40;;
38859;SDS011;24609;48.316;16.174;2023-06-22T07:09:05;10.82;;;3.90;;
38859;SDS011;24609;48.316;16.174;2023-06-22T07:11:31;8.00;;;4.05;;
38859;SDS011;24609;48.316;16.174;2023-06-22T07:13:56;5.13;;;3.60;;
38859;SDS011;24609;48.316;16.174;2023-06-22T07:16:22;8.15;;;4.25;;
38859;SDS011;24609;48.316;16.174;2023-06-22T07:18:48;8.15;;;4.50;;
38859;SDS011;24609;48.316;16.174;2023-06-22T07:21:14;10.07;;;4.07;;
38859;SDS011;24609;48.316;16.174;2023-06-22T07:23:40;9.95;;;4.15;;
38859;SDS011;24609;48.316;16.174;2023-06-22T07:26:05;9.70;;;4.00;;
38859;SDS011;24609;48.316;16.174;2023-06-22T07:28:31;7.50;;;4.22;;
38859;SDS011;24609;48.316;16.174;2023-06-22T07:31:02;8.48;;;4.07;;
38859;SDS011;24609;48.316;16.174;2023-06-22T07:33:29;11.52;;;4.40;;
38859;SDS011;24609;48.316;16.174;2023-06-22T07:35:54;10.18;;;4.60;;
38859;SDS011;24609;48.316;16.174;2023-06-22T07:38:20;9.27;;;4.50;;
38859;SDS011;24609;48.316;16.174;2023-06-22T07:40:46;11.85;;;4.78;;
38859;SDS011;24609;48.316;16.174;2023-06-22T07:43:12;11.73;;;5.13;;
38859;SDS011;24609;48.316;16.174;2023-06-22T07:45:38;11.43;;;4.95;;
38859;SDS011;24609;48.316;16.174;2023-06-22T07:48:06;14.73;;;5.57;;
38859;SDS011;24609;48.316;16.174;2023-06-22T07:50:32;12.65;;;5.80;;
38859;SDS011;24609;48.316;16.174;2023-06-22T07:52:58;13.07;;;5.28;;
38859;SDS011;24609;48.316;16.174;2023-06-22T07:55:23;9.90;;;5.38;;
38859;SDS011;24609;48.316;16.174;2023-06-22T07:57:49;12.45;;;5.88;;
38859;SDS011;24609;48.316;16.174;2023-06-22T08:00:17;13.93;;;6.60;;
38859;SDS011;24609;48.316;16.174;2023-06-22T08:02:44;13.27;;;5.65;;
38859;SDS011;24609;48.316;16.174;2023-06-22T08:05:10;12.20;;;6.43;;
38859;SDS011;24609;48.316;16.174;2023-06-22T08:07:37;10.13;;;6.15;;
38859;SDS011;24609;48.316;16.174;2023-06-22T08:10:09;13.07;;;6.55;;
38859;SDS011;24609;48.316;16.174;2023-06-22T08:12:36;13.48;;;6.22;;
38859;SDS011;24609;48.316;16.174;2023-06-22T08:15:02;16.55;;;6.43;;
38859;SDS011;24609;48.316;16.174;2023-06-22T08:17:28;15.50;;;6.18;;
38859;SDS011;24609;48.316;16.174;2023-06-22T08:19:54;10.07;;;6.72;;
38859;SDS011;24609;48.316;16.174;2023-06-22T08:22:19;14.05;;;6.18;;
38859;SDS011;24609;48.316;16.174;2023-06-22T08:24:45;13.60;;;7.22;;
38859;SDS011;24609;48.316;16.174;2023-06-22T08:27:11;17.10;;;6.78;;
38859;SDS011;24609;48.316;16.174;2023-06-22T08:29:38;15.40;;;6.18;;
38859;SDS011;24609;48.316;16.174;2023-06-22T08:32:04;16.95;;;7.53;;
38859;SDS011;24609;48.316;16.174;2023-06-22T08:34:30;17.98;;;7.15;;
38859;SDS011;24609;48.316;16.174;2023-06-22T08:36:56;16.23;;;6.70;;
38859;SDS011;24609;48.316;16.174;2023-06-22T08:39:22;13.38;;;6.70;;
38859;SDS011;24609;48.316;16.174;2023-06-22T08:41:48;15.88;;;7.40;;
38859;SDS011;24609;48.316;16.174;2023-06-22T08:44:13;15.93;;;6.85;;
38859;SDS011;24609;48.316;16.174;2023-06-22T08:46:40;14.73;;;6.70;;
38859;SDS011;24609;48.316;16.174;2023-06-22T08:49:06;14.32;;;6.47;;
38859;SDS011;24609;48.316;16.174;2023-06-22T08:51:33;16.75;;;7.10;;
38859;SDS011;24609;48.316;16.174;2023-06-22T08:53:59;12.90;;;6.35;;
38859;SDS011;24609;48.316;16.174;2023-06-22T08:56:24;11.00;;;6.00;;
38859;SDS011;24609;48.316;16.174;2023-06-22T08:58:50;13.75;;;6.60;;
38859;SDS011;24609;48.316;16.174;2023-06-22T09:01:16;12.73;;;6.60;;
38859;SDS011;24609;48.316;16.174;2023-06-22T09:03:43;13.38;;;6.78;;
38859;SDS011;24609;48.316;16.174;2023-06-22T09:06:08;17.60;;;6.75;;
38859;SDS011;24609;48.316;16.174;2023-06-22T09:08:35;13.25;;;7.28;;
38859;SDS011;24609;48.316;16.174;2023-06-22T09:11:01;12.98;;;6.40;;
38859;SDS011;24609;48.316;16.174;2023-06-22T09:13:30;10.90;;;5.78;;
38859;SDS011;24609;48.316;16.174;2023-06-22T09:15:56;14.25;;;6.15;;
38859;SDS011;24609;48.316;16.174;2023-06-22T09:18:22;11.57;;;6.35;;
38859;SDS011;24609;48.316;16.174;2023-06-22T09:20:48;15.52;;;6.20;;
38859;SDS011;24609;48.316;16.174;2023-06-22T09:23:14;16.83;;;6.05;;
38859;SDS011;24609;48.316;16.174;2023-06-22T09:25:42;15.45;;;6.13;;
38859;SDS011;24609;48.316;16.174;2023-06-22T09:28:08;16.30;;;6.03;;
38859;SDS011;24609;48.316;16.174;2023-06-22T09:30:34;9.82;;;6.03;;
38859;SDS011;24609;48.316;16.174;2023-06-22T09:32:59;11.38;;;5.40;;
38859;SDS011;24609;48.316;16.174;2023-06-22T09:35:26;14.13;;;5.95;;
38859;SDS011;24609;48.316;16.174;2023-06-22T09:37:54;16.13;;;6.75;;
38859;SDS011;24609;48.316;16.174;2023-06-22T09:40:19;11.73;;;6.72;;
38859;SDS011;24609;48.316;16.174;2023-06-22T09:42:45;11.77;;;6.10;;
38859;SDS011;24609;48.316;16.174;2023-06-22T09:45:11;16.10;;;6.72;;
38859;SDS011;24609;48.316;16.174;2023-06-22T09:47:37;11.75;;;6.20;;
38859;SDS011;24609;48.316;16.174;2023-06-22T09:50:03;10.90;;;5.53;;
38859;SDS011;24609;48.316;16.174;2023-06-22T09:52:32;11.85;;;6.00;;
38859;SDS011;24609;48.316;16.174;2023-06-22T09:54:57;12.70;;;6.60;;
38859;SDS011;24609;48.316;16.174;2023-06-22T09:57:25;13.60;;;6.03;;
38859;SDS011;24609;48.316;16.174;2023-06-22T09:59:51;15.20;;;6.63;;
38859;SDS011;24609;48.316;16.174;2023-06-22T10:02:17;18.67;;;7.25;;
38859;SDS011;24609;48.316;16.174;2023-06-22T10:04:43;12.52;;;6.50;;
38859;SDS011;24609;48.316;16.174;2023-06-22T10:07:09;15.32;;;7.10;;
38859;SDS011;24609;48.316;16.174;2023-06-22T10:09:34;15.25;;;7.80;;
38859;SDS011;24609;48.316;16.174;2023-06-22T10:12:00;10.98;;;6.63;;
38859;SDS011;24609;48.316;16.174;2023-06-22T10:14:26;15.52;;;6.63;;
38859;SDS011;24609;48.316;16.174;2023-06-22T10:16:54;12.95;;;6.47;;
38859;SDS011;24609;48.316;16.174;2023-06-22T10:19:20;12.23;;;6.47;;
38859;SDS011;24609;48.316;16.174;2023-06-22T10:21:46;12.10;;;6.13;;
38859;SDS011;24609;48.316;16.174;2023-06-22T10:24:11;13.40;;;6.70;;
38859;SDS011;24609;48.316;16.174;2023-06-22T10:26:37;16.98;;;6.63;;
38859;SDS011;24609;48.316;16.174;2023-06-22T10:29:03;10.88;;;6.65;;
38859;SDS011;24609;48.316;16.174;2023-06-22T10:31:29;12.57;;;6.82;;
38859;SDS011;24609;48.316;16.174;2023-06-22T10:33:55;11.13;;;6.65;;
38859;SDS011;24609;48.316;16.174;2023-06-22T10:36:21;12.63;;;5.57;;
38859;SDS011;24609;48.316;16.174;2023-06-22T10:38:48;12.20;;;6.28;;
38859;SDS011;24609;48.316;16.174;2023-06-22T10:41:14;11.90;;;5.40;;
38859;SDS011;24609;48.316;16.174;2023-06-22T10:43:40;9.63;;;5.40;;
38859;SDS011;24609;48.316;16.174;2023-06-22T10:46:06;12.20;;;7.50;;
38859;SDS011;24609;48.316;16.174;2023-06-22T10:48:32;11.00;;;6.30;;
38859;SDS011;24609;48.316;16.174;2023-06-22T10:50:58;9.93;;;6.85;;
38859;SDS011;24609;48.316;16.174;2023-06-22T10:53:24;8.43;;;6.10;;
38859;SDS011;24609;48.316;16.174;2023-06-22T10:55:50;11.88;;;6.20;;
38859;SDS011;24609;48.316;16.174;2023-06-22T10:58:17;12.02;;;6.10;;
38859;SDS011;24609;48.316;16.174;2023-06-22T11:03:10;9.55;;;6.38;;
38859;SDS011;24609;48.316;16.174;2023-06-22T11:05:35;11.30;;;6.50;;
38859;SDS011;24609;48.316;16.174;2023-06-22T11:08:14;18.33;;;6.95;;
38859;SDS011;24609;48.316;16.174;2023-06-22T11:10:42;12.52;;;6.70;;
38859;SDS011;24609;48.316;16.174;2023-06-22T11:13:08;13.90;;;7.03;;
38859;SDS011;24609;48.316;16.174;2023-06-22T11:15:35;10.23;;;6.82;;
38859;SDS011;24609;48.316;16.174;2023-06-22T11:18:06;11.50;;;7.10;;
38859;SDS011;24609;48.316;16.174;2023-06-22T11:20:35;11.57;;;6.78;;
38859;SDS011;24609;48.316;16.174;2023-06-22T11:23:06;10.90;;;6.22;;
38859;SDS011;24609;48.316;16.174;2023-06-22T11:25:33;13.38;;;6.57;;
38859;SDS011;24609;48.316;16.174;2023-06-22T11:28:07;8.73;;;6.45;;
38859;SDS011;24609;48.316;16.174;2023-06-22T11:30:42;10.00;;;5.90;;
38859;SDS011;24609;48.316;16.174;2023-06-22T11:33:08;10.75;;;5.80;;
38859;SDS011;24609;48.316;16.174;2023-06-22T11:35:40;14.88;;;6.07;;
38859;SDS011;24609;48.316;16.174;2023-06-22T11:38:09;12.40;;;5.72;;
38859;SDS011;24609;48.316;16.174;2023-06-22T11:40:34;13.68;;;6.28;;
38859;SDS011;24609;48.316;16.174;2023-06-22T11:43:00;10.18;;;4.70;;
38859;SDS011;24609;48.316;16.174;2023-06-22T11:45:26;10.30;;;5.50;;
38859;SDS011;24609;48.316;16.174;2023-06-22T11:47:52;9.15;;;5.22;;
38859;SDS011;24609;48.316;16.174;2023-06-22T11:50:18;8.10;;;4.82;;
38859;SDS011;24609;48.316;16.174;2023-06-22T11:52:44;7.30;;;4.57;;
38859;SDS011;24609;48.316;16.174;2023-06-22T11:55:09;11.00;;;4.13;;
38859;SDS011;24609;48.316;16.174;2023-06-22T11:57:36;10.25;;;4.63;;
38859;SDS011;24609;48.316;16.174;2023-06-22T12:00:19;6.55;;;4.20;;
38859;SDS011;24609;48.316;16.174;2023-06-22T12:02:47;10.73;;;4.37;;
38859;SDS011;24609;48.316;16.174;2023-06-22T12:05:12;11.07;;;4.93;;
38859;SDS011;24609;48.316;16.174;2023-06-22T12:07:40;11.50;;;4.28;;
38859;SDS011;24609;48.316;16.174;2023-06-22T12:10:09;21.45;;;5.60;;
38859;SDS011;24609;48.316;16.174;2023-06-22T12:12:35;9.65;;;4.97;;
38859;SDS011;24609;48.316;16.174;2023-06-22T12:15:01;10.43;;;5.53;;
38859;SDS011;24609;48.316;16.174;2023-06-22T12:17:28;13.05;;;5.25;;
38859;SDS011;24609;48.316;16.174;2023-06-22T12:19:55;14.73;;;5.30;;
38859;SDS011;24609;48.316;16.174;2023-06-22T12:22:21;12.63;;;6.30;;
38859;SDS011;24609;48.316;16.174;2023-06-22T12:24:46;12.45;;;6.32;;
38859;SDS011;24609;48.316;16.174;2023-06-22T12:27:12;10.32;;;6.50;;
38859;SDS011;24609;48.316;16.174;2023-06-22T12:29:45;11.68;;;6.47;;
38859;SDS011;24609;48.316;16.174;2023-06-22T12:32:11;14.20;;;6.60;;
38859;SDS011;24609;48.316;16.174;2023-06-22T12:34:43;10.73;;;5.88;;
38859;SDS011;24609;48.316;16.174;2023-06-22T12:37:15;9.60;;;6.07;;
38859;SDS011;24609;48.316;16.174;2023-06-22T12:39:40;9.30;;;5.85;;
38859;SDS011;24609;48.316;16.174;2023-06-22T12:42:09;10.13;;;5.60;;
38859;SDS011;24609;48.316;16.174;2023-06-22T12:44:37;9.35;;;5.25;;
38859;SDS011;24609;48.316;16.174;2023-06-22T12:47:09;8.50;;;4.97;;
38859;SDS011;24609;48.316;16.174;2023-06-22T12:49:36;8.85;;;5.07;;
38859;SDS011;24609;48.316;16.174;2023-06-22T12:52:02;11.68;;;5.40;;
38859;SDS011;24609;48.316;16.174;2023-06-22T12:54:28;11.10;;;5.35;;
38859;SDS011;24609;48.316;16.174;2023-06-22T12:56:55;9.73;;;4.78;;
38859;SDS011;24609;48.316;16.174;2023-06-22T12:59:29;11.35;;;5.07;;
38859;SDS011;24609;48.316;16.174;2023-06-22T13:02:03;10.43;;;5.18;;
38859;SDS011;24609;48.316;16.174;2023-06-22T13:05:01;12.63;;;5.13;;
38859;SDS011;24609;48.316;16.174;2023-06-22T13:07:27;11.65;;;5.25;;
38859;SDS011;24609;48.316;16.174;2023-06-22T13:09:56;8.38;;;4.93;;
38859;SDS011;24609;48.316;16.174;2023-06-22T13:12:22;9.35;;;4.95;;
38859;SDS011;24609;48.316;16.174;2023-06-22T13:14:48;15.55;;;5.05;;
38859;SDS011;24609;48.316;16.174;2023-06-22T13:17:14;7.30;;;4.75;;
38859;SDS011;24609;48.316;16.174;2023-06-22T13:20:05;8.52;;;4.35;;
38859;SDS011;24609;48.316;16.174;2023-06-22T13:22:34;14.13;;;4.53;;
38859;SDS011;24609;48.316;16.174;2023-06-22T13:25:23;10.35;;;4.65;;
38859;SDS011;24609;48.316;16.174;2023-06-22T13:27:57;13.25;;;4.78;;
38859;SDS011;24609;48.316;16.174;2023-06-22T13:30:29;11.43;;;4.93;;
38859;SDS011;24609;48.316;16.174;2023-06-22T13:32:59;15.55;;;5.32;;
38859;SDS011;24609;48.316;16.174;2023-06-22T13:35:28;12.20;;;4.47;;
38859;SDS011;24609;48.316;16.174;2023-06-22T13:37:56;8.20;;;4.70;;
38859;SDS011;24609;48.316;16.174;2023-06-22T13:40:22;11.40;;;4.70;;
38859;SDS011;24609;48.316;16.174;2023-06-22T13:42:47;7.68;;;4.57;;
38859;SDS011;24609;48.316;16.174;2023-06-22T13:45:13;6.43;;;4.57;;
38859;SDS011;24609;48.316;16.174;2023-06-22T13:50:07;9.27;;;4.50;;
38859;SDS011;24609;48.316;16.174;2023-06-22T13:52:33;11.38;;;4.88;;
38859;SDS011;24609;48.316;16.174;2023-06-22T13:54:59;8.60;;;4.57;;
38859;SDS011;24609;48.316;16.174;2023-06-22T13:57:34;9.40;;;5.32;;
38859;SDS011;24609;48.316;16.174;2023-06-22T14:00:01;12.10;;;5.07;;
38859;SDS011;24609;48.316;16.174;2023-06-22T14:02:29;11.90;;;5.20;;
38859;SDS011;24609;48.316;16.174;2023-06-22T14:04:55;10.02;;;4.85;;
38859;SDS011;24609;48.316;16.174;2023-06-22T14:07:21;9.27;;;5.38;;
38859;SDS011;24609;48.316;16.174;2023-06-22T14:09:47;9.73;;;4.82;;
38859;SDS011;24609;48.316;16.174;2023-06-22T14:12:13;12.27;;;5.07;;
38859;SDS011;24609;48.316;16.174;2023-06-22T14:14:39;13.07;;;5.57;;
38859;SDS011;24609;48.316;16.174;2023-06-22T14:17:05;12.35;;;5.35;;
38859;SDS011;24609;48.316;16.174;2023-06-22T14:19:31;12.30;;;5.53;;
38859;SDS011;24609;48.316;16.174;2023-06-22T14:21:56;11.02;;;5.22;;
38859;SDS011;24609;48.316;16.174;2023-06-22T14:24:22;12.63;;;5.28;;
38859;SDS011;24609;48.316;16.174;2023-06-22T14:26:48;9.93;;;4.90;;
38859;SDS011;24609;48.316;16.174;2023-06-22T14:29:14;9.07;;;4.70;;
38859;SDS011;24609;48.316;16.174;2023-06-22T14:31:40;9.68;;;5.82;;
38859;SDS011;24609;48.316;16.174;2023-06-22T14:34:06;11.77;;;5.40;;
38859;SDS011;24609;48.316;16.174;2023-06-22T14:36:31;10.27;;;6.28;;
38859;SDS011;24609;48.316;16.174;2023-06-22T14:38:57;11.45;;;5.07;;